Aérodrome :
LOGIN :

S'inscrire | Disclaimer

   EN    FR    IT 

 










Légende :    VFR   VFR Marginal   IFR   IFR Intensif   IFR Très Intensif
Visi : 
Plafond : 
>= 8 km
>= 3000ft
5 à 8 km
1000 à 3000 ft
1500m à 5 km
500 à 1000 ft
800 à 1500m
200 à 500 ft
< 800m
< 200 ft
Symboles :   Orages  Brouillard  Fortes neiges  Fortes précipitations  Vent > 20 kt
SIGMETs :   Divers  Orages  Givrage  Turbulence  Onde Orograph.  Cendres Volcan.






- Altitude de l'aérodrome : 788 ft
- Code IATA : DCM


LFCK - Castres-Mazamet

DERNIER METAR :
  • 050730Z AUTO VRB02KT CAVOK 19/08 Q1017 NOSIG

METARs EXPIRÉS :
  • 050700Z AUTO 00000KT CAVOK 18/09 Q1017 NOSIG
  • 050630Z AUTO VRB02KT CAVOK 17/08 Q1017 NOSIG
  • 050600Z AUTO 07001KT CAVOK 15/08 Q1017 NOSIG
  • 050530Z AUTO 12003KT CAVOK 11/07 Q1017 NOSIG
  • 050500Z AUTO 05001KT CAVOK 11/07 Q1017

TAF TAF LFCK
Valide du 05 à 06h jusqu'au 05 à 15h UTC


050500Z 0506/0515 VRB02KT CAVOK



MET'MAP, la Météo Aéronautique d'un coup d'oeil ! - Copyright ORBIFLY Décembre 2007 - Disclaimer

ORBIFLY MET'MAP TEAM :

Programmation & Développement : Alexandra Zaïnal
Sur une idée originale de : Baudouin d'Aumeries
Assistance à la programmation : Marc-Olivier Méhu
Soutien technique & logistique : Manuel Goepfert

Contact : metmap@orbifly.com




SOURCES & CREDITS :

   NOAA